sensor_id;sensor_type;location;lat;lon;timestamp;pressure;altitude;pressure_sealevel;temperature;humidity
37710;BME280;60223;34.854;-92.408;2023-08-07T19:18:29;100574.68;;;26.99;31.80
37710;BME280;60223;34.854;-92.408;2023-08-07T19:20:58;100565.94;;;27.15;31.21
37710;BME280;60223;34.854;-92.408;2023-08-07T19:23:23;100564.20;;;27.00;31.46
37710;BME280;60223;34.854;-92.408;2023-08-07T19:25:49;100567.52;;;27.14;30.74
37710;BME280;60223;34.854;-92.408;2023-08-07T19:28:15;100556.80;;;27.06;30.72
37710;BME280;60223;34.854;-92.408;2023-08-07T19:30:38;100542.08;;;27.59;30.24
37710;BME280;60223;34.854;-92.408;2023-08-07T19:33:05;100543.83;;;27.43;30.67
37710;BME280;60223;34.854;-92.408;2023-08-07T19:35:32;100530.69;;;29.38;28.38
37710;BME280;60223;34.854;-92.408;2023-08-07T19:37:56;100522.92;;;30.02;27.50
37710;BME280;60223;34.854;-92.408;2023-08-07T19:40:23;100518.70;;;30.36;27.25
37710;BME280;60223;34.854;-92.408;2023-08-07T19:42:48;100511.89;;;30.17;27.04
37710;BME280;60223;34.854;-92.408;2023-08-07T19:45:12;100501.00;;;30.01;27.76
37710;BME280;60223;34.854;-92.408;2023-08-07T19:47:39;100489.24;;;28.67;28.02
37710;BME280;60223;34.854;-92.408;2023-08-07T19:50:04;100493.59;;;28.91;28.03
37710;BME280;60223;34.854;-92.408;2023-08-07T19:52:30;100486.16;;;28.47;28.52
37710;BME280;60223;34.854;-92.408;2023-08-07T19:54:56;100486.80;;;28.30;28.25
37710;BME280;60223;34.854;-92.408;2023-08-07T19:57:19;100486.94;;;28.27;28.15
37710;BME280;60223;34.854;-92.408;2023-08-07T19:59:47;100489.78;;;27.97;28.83
37710;BME280;60223;34.854;-92.408;2023-08-07T20:02:13;100494.00;;;27.83;28.52
37710;BME280;60223;34.854;-92.408;2023-08-07T20:04:37;100493.76;;;27.94;28.66
37710;BME280;60223;34.854;-92.408;2023-08-07T20:07:03;100491.53;;;29.79;27.23
37710;BME280;60223;34.854;-92.408;2023-08-07T20:09:29;100493.44;;;30.09;26.53
37710;BME280;60223;34.854;-92.408;2023-08-07T20:11:55;100498.08;;;30.46;26.24
37710;BME280;60223;34.854;-92.408;2023-08-07T20:14:18;100493.35;;;30.50;26.03
37710;BME280;60223;34.854;-92.408;2023-08-07T20:16:46;100498.17;;;30.50;26.37
37710;BME280;60223;34.854;-92.408;2023-08-07T20:19:11;100490.30;;;30.30;26.70
37710;BME280;60223;34.854;-92.408;2023-08-07T20:21:37;100487.66;;;29.71;26.97
37710;BME280;60223;34.854;-92.408;2023-08-07T20:24:03;100493.07;;;28.73;27.92
37710;BME280;60223;34.854;-92.408;2023-08-07T20:26:25;100481.46;;;29.07;27.47
37710;BME280;60223;34.854;-92.408;2023-08-07T20:31:20;100478.66;;;28.22;28.65
37710;BME280;60223;34.854;-92.408;2023-08-07T20:33:45;100480.49;;;30.32;26.49
37710;BME280;60223;34.854;-92.408;2023-08-07T20:36:10;100475.53;;;30.57;26.29
37710;BME280;60223;34.854;-92.408;2023-08-07T20:38:36;100479.51;;;30.67;26.01
37710;BME280;60223;34.854;-92.408;2023-08-07T20:41:00;100477.10;;;30.29;26.24
37710;BME280;60223;34.854;-92.408;2023-08-07T20:43:27;100476.39;;;30.41;26.16
37710;BME280;60223;34.854;-92.408;2023-08-07T20:45:52;100468.56;;;29.78;26.95
37710;BME280;60223;34.854;-92.408;2023-08-07T20:48:19;100461.80;;;31.10;26.10
37710;BME280;60223;34.854;-92.408;2023-08-07T20:50:44;100461.90;;;30.53;26.36
37710;BME280;60223;34.854;-92.408;2023-08-07T20:53:10;100458.95;;;30.20;26.80
37710;BME280;60223;34.854;-92.408;2023-08-07T20:55:35;100446.88;;;29.05;27.92
37710;BME280;60223;34.854;-92.408;2023-08-07T20:57:58;100446.45;;;29.53;26.90
37710;BME280;60223;34.854;-92.408;2023-08-07T21:00:26;100443.89;;;28.99;27.27
37710;BME280;60223;34.854;-92.408;2023-08-07T21:02:52;100445.45;;;29.03;27.40
37710;BME280;60223;34.854;-92.408;2023-08-07T21:05:18;100448.83;;;29.03;27.54
37710;BME280;60223;34.854;-92.408;2023-08-07T21:07:43;100454.05;;;28.62;27.72
37710;BME280;60223;34.854;-92.408;2023-08-07T21:10:10;100457.75;;;28.61;27.56
37710;BME280;60223;34.854;-92.408;2023-08-07T21:12:35;100460.40;;;28.36;27.68
37710;BME280;60223;34.854;-92.408;2023-08-07T21:15:00;100459.58;;;28.59;28.41
37710;BME280;60223;34.854;-92.408;2023-08-07T21:17:24;100461.99;;;29.88;26.42
37710;BME280;60223;34.854;-92.408;2023-08-07T21:19:51;100465.36;;;30.48;26.11
37710;BME280;60223;34.854;-92.408;2023-08-07T21:22:16;100465.03;;;30.54;25.86
37710;BME280;60223;34.854;-92.408;2023-08-07T21:24:41;100466.94;;;30.96;25.72
37710;BME280;60223;34.854;-92.408;2023-08-07T21:27:08;100470.44;;;30.81;25.92
37710;BME280;60223;34.854;-92.408;2023-08-07T21:29:33;100467.19;;;29.57;26.73
37710;BME280;60223;34.854;-92.408;2023-08-07T21:31:59;100463.55;;;28.99;26.91
37710;BME280;60223;34.854;-92.408;2023-08-07T21:34:23;100463.73;;;29.39;26.89
37710;BME280;60223;34.854;-92.408;2023-08-07T21:36:50;100463.90;;;28.63;27.17
37710;BME280;60223;34.854;-92.408;2023-08-07T21:39:16;100458.12;;;28.34;27.34
37710;BME280;60223;34.854;-92.408;2023-08-07T21:41:41;100451.29;;;28.37;27.39
37710;BME280;60223;34.854;-92.408;2023-08-07T21:44:07;100453.28;;;28.10;27.84
37710;BME280;60223;34.854;-92.408;2023-08-07T21:46:32;100457.61;;;29.55;26.64
37710;BME280;60223;34.854;-92.408;2023-08-07T21:48:58;100459.76;;;30.52;25.75
37710;BME280;60223;34.854;-92.408;2023-08-07T21:51:23;100462.51;;;30.26;25.60
37710;BME280;60223;34.854;-92.408;2023-08-07T21:53:47;100460.08;;;30.97;25.43
37710;BME280;60223;34.854;-92.408;2023-08-07T21:56:15;100465.75;;;30.54;25.67
37710;BME280;60223;34.854;-92.408;2023-08-07T21:58:39;100464.87;;;30.32;26.30
37710;BME280;60223;34.854;-92.408;2023-08-07T22:01:06;100467.07;;;29.58;26.41
37710;BME280;60223;34.854;-92.408;2023-08-07T22:03:31;100467.32;;;29.27;26.78
37710;BME280;60223;34.854;-92.408;2023-08-07T22:05:57;100467.94;;;28.67;26.97
37710;BME280;60223;34.854;-92.408;2023-08-07T22:08:22;100467.49;;;28.29;27.22
37710;BME280;60223;34.854;-92.408;2023-08-07T22:10:46;100467.34;;;28.04;27.37
37710;BME280;60223;34.854;-92.408;2023-08-07T22:13:12;100473.91;;;28.46;27.04
37710;BME280;60223;34.854;-92.408;2023-08-07T22:15:39;100473.81;;;28.63;28.13
37710;BME280;60223;34.854;-92.408;2023-08-07T22:18:05;100473.48;;;30.07;25.94
37710;BME280;60223;34.854;-92.408;2023-08-07T22:20:31;100475.11;;;30.49;25.57
37710;BME280;60223;34.854;-92.408;2023-08-07T22:23:01;100470.78;;;30.34;25.35
37710;BME280;60223;34.854;-92.408;2023-08-07T22:25:21;100476.53;;;30.63;25.33
37710;BME280;60223;34.854;-92.408;2023-08-07T22:27:47;100477.05;;;30.29;25.47
37710;BME280;60223;34.854;-92.408;2023-08-07T22:30:11;100477.79;;;29.33;26.19
37710;BME280;60223;34.854;-92.408;2023-08-07T22:33:04;100476.91;;;28.81;26.59
37710;BME280;60223;34.854;-92.408;2023-08-07T22:35:05;100471.91;;;28.59;26.89
37710;BME280;60223;34.854;-92.408;2023-08-07T22:37:29;100468.70;;;28.28;27.05
37710;BME280;60223;34.854;-92.408;2023-08-07T22:39:54;100462.93;;;28.41;26.99
37710;BME280;60223;34.854;-92.408;2023-08-07T22:42:57;100464.21;;;28.15;27.14
37710;BME280;60223;34.854;-92.408;2023-08-07T22:44:45;100463.22;;;28.10;27.07
37710;BME280;60223;34.854;-92.408;2023-08-07T22:47:12;100463.78;;;28.71;27.18
37710;BME280;60223;34.854;-92.408;2023-08-07T22:49:35;100465.23;;;30.15;25.59
37710;BME280;60223;34.854;-92.408;2023-08-07T22:52:27;100462.34;;;30.61;25.22
37710;BME280;60223;34.854;-92.408;2023-08-07T22:54:28;100463.80;;;30.55;25.10
37710;BME280;60223;34.854;-92.408;2023-08-07T22:56:53;100459.50;;;30.92;25.04
37710;BME280;60223;34.854;-92.408;2023-08-07T22:59:20;100455.94;;;30.51;25.26
37710;BME280;60223;34.854;-92.408;2023-08-07T23:02:05;100453.07;;;29.60;25.83
37710;BME280;60223;34.854;-92.408;2023-08-07T23:04:08;100447.21;;;29.03;26.18
37710;BME280;60223;34.854;-92.408;2023-08-07T23:06:36;100443.41;;;28.62;26.79
37710;BME280;60223;34.854;-92.408;2023-08-07T23:09:01;100441.79;;;28.84;26.74
37710;BME280;60223;34.854;-92.408;2023-08-07T23:11:28;100438.84;;;28.57;26.90
37710;BME280;60223;34.854;-92.408;2023-08-07T23:13:53;100437.30;;;28.61;27.40
37710;BME280;60223;34.854;-92.408;2023-08-07T23:16:19;100440.09;;;30.51;25.46
37710;BME280;60223;34.854;-92.408;2023-08-07T23:18:44;100441.13;;;30.73;25.30
37710;BME280;60223;34.854;-92.408;2023-08-07T23:21:10;100443.69;;;30.97;25.13
37710;BME280;60223;34.854;-92.408;2023-08-07T23:23:35;100446.10;;;30.50;25.15
37710;BME280;60223;34.854;-92.408;2023-08-07T23:26:00;100446.89;;;29.65;26.12
37710;BME280;60223;34.854;-92.408;2023-08-07T23:28:26;100442.46;;;28.27;27.05
37710;BME280;60223;34.854;-92.408;2023-08-07T23:30:52;100446.62;;;28.85;26.47
37710;BME280;60223;34.854;-92.408;2023-08-07T23:33:16;100442.23;;;28.79;26.74
37710;BME280;60223;34.854;-92.408;2023-08-07T23:35:43;100440.74;;;28.57;26.77
37710;BME280;60223;34.854;-92.408;2023-08-07T23:38:08;100438.62;;;28.34;26.93
37710;BME280;60223;34.854;-92.408;2023-08-07T23:40:36;100432.89;;;28.02;27.77
37710;BME280;60223;34.854;-92.408;2023-08-07T23:42:58;100438.91;;;30.00;25.69
37710;BME280;60223;34.854;-92.408;2023-08-07T23:45:25;100443.87;;;30.63;25.21
37710;BME280;60223;34.854;-92.408;2023-08-07T23:47:48;100442.75;;;30.31;25.13
37710;BME280;60223;34.854;-92.408;2023-08-07T23:50:17;100445.91;;;30.35;25.14
37710;BME280;60223;34.854;-92.408;2023-08-07T23:52:41;100447.25;;;30.31;25.46
37710;BME280;60223;34.854;-92.408;2023-08-07T23:55:08;100447.35;;;29.76;25.88
37710;BME280;60223;34.854;-92.408;2023-08-07T23:57:33;100446.98;;;29.94;26.20
37710;BME280;60223;34.854;-92.408;2023-08-07T23:59:57;100443.08;;;29.14;26.53
